RJAT(METAR)
04/26 16:00
METAR RJAT 260700Z VRB03KT 0100 -SHRA FG VV001 09/09 Q1005 RMK
A2968=
戻る
トップページへ戻る
IMOC Co,.Ltd.